Terminal Aerodrome Forecast
Issued by NWS

Home | Current Version | Previous Version | Text Only | Print | Product List | Glossary On
Versions: 1 2 3 4 5 6 7 8 9 10 11 12 13 14 15 16 17 18 19 20 21 22 23 24 25
000
FTUS43 KLSX 311700
TAFCPS
TAF
KCPS 311726Z 3118/0118 19007KT P6SM SCT035
     FM010000 17008KT P6SM SCT250
     FM011600 19012KT P6SM VCSH BKN060 BKN120=

USA.gov is the U.S. government's official web portal to all federal, state and local government web resources and services.